sensor_id;sensor_type;location;lat;lon;timestamp;temperature;humidity
65046;DHT22;54657;52.022;5.534;2023-04-25T00:02:01;8.60;84.00
65046;DHT22;54657;52.022;5.534;2023-04-25T00:04:28;8.70;83.70
65046;DHT22;54657;52.022;5.534;2023-04-25T00:06:55;8.70;83.50
65046;DHT22;54657;52.022;5.534;2023-04-25T00:09:21;8.70;83.30
65046;DHT22;54657;52.022;5.534;2023-04-25T00:11:47;8.70;83.30
65046;DHT22;54657;52.022;5.534;2023-04-25T00:14:12;8.70;83.40
65046;DHT22;54657;52.022;5.534;2023-04-25T00:16:38;8.70;83.30
65046;DHT22;54657;52.022;5.534;2023-04-25T00:19:04;8.70;83.30
65046;DHT22;54657;52.022;5.534;2023-04-25T00:21:30;8.60;83.20
65046;DHT22;54657;52.022;5.534;2023-04-25T00:23:57;8.60;83.50
65046;DHT22;54657;52.022;5.534;2023-04-25T00:26:22;8.60;83.50
65046;DHT22;54657;52.022;5.534;2023-04-25T00:28:48;8.60;83.40
65046;DHT22;54657;52.022;5.534;2023-04-25T00:31:14;8.60;83.20
65046;DHT22;54657;52.022;5.534;2023-04-25T00:33:39;8.60;83.20
65046;DHT22;54657;52.022;5.534;2023-04-25T00:36:05;8.70;83.00
65046;DHT22;54657;52.022;5.534;2023-04-25T00:38:31;8.70;83.40
65046;DHT22;54657;52.022;5.534;2023-04-25T00:40:57;8.70;82.80
65046;DHT22;54657;52.022;5.534;2023-04-25T00:43:26;8.70;82.70
65046;DHT22;54657;52.022;5.534;2023-04-25T00:45:52;8.70;83.30
65046;DHT22;54657;52.022;5.534;2023-04-25T00:48:19;8.60;82.70
65046;DHT22;54657;52.022;5.534;2023-04-25T00:50:51;8.50;82.90
65046;DHT22;54657;52.022;5.534;2023-04-25T00:53:18;8.50;83.20
65046;DHT22;54657;52.022;5.534;2023-04-25T00:55:43;8.50;83.10
65046;DHT22;54657;52.022;5.534;2023-04-25T00:58:09;8.40;83.20
65046;DHT22;54657;52.022;5.534;2023-04-25T01:00:35;8.40;83.20
65046;DHT22;54657;52.022;5.534;2023-04-25T01:03:01;8.40;83.00
65046;DHT22;54657;52.022;5.534;2023-04-25T01:05:27;8.50;83.00
65046;DHT22;54657;52.022;5.534;2023-04-25T01:07:53;8.50;82.50
65046;DHT22;54657;52.022;5.534;2023-04-25T01:10:19;8.50;82.50
65046;DHT22;54657;52.022;5.534;2023-04-25T01:12:44;8.50;82.40
65046;DHT22;54657;52.022;5.534;2023-04-25T01:15:10;8.50;82.40
65046;DHT22;54657;52.022;5.534;2023-04-25T01:17:35;8.50;82.20
65046;DHT22;54657;52.022;5.534;2023-04-25T01:20:04;8.50;82.40
65046;DHT22;54657;52.022;5.534;2023-04-25T01:22:30;8.40;82.60
65046;DHT22;54657;52.022;5.534;2023-04-25T01:24:56;8.50;82.50
65046;DHT22;54657;52.022;5.534;2023-04-25T01:27:22;8.50;82.30
65046;DHT22;54657;52.022;5.534;2023-04-25T01:29:48;8.60;82.00
65046;DHT22;54657;52.022;5.534;2023-04-25T01:32:15;8.70;81.60
65046;DHT22;54657;52.022;5.534;2023-04-25T01:34:41;8.70;81.30
65046;DHT22;54657;52.022;5.534;2023-04-25T01:37:06;8.70;81.60
65046;DHT22;54657;52.022;5.534;2023-04-25T01:39:32;8.60;81.60
65046;DHT22;54657;52.022;5.534;2023-04-25T01:41:59;8.70;81.50
65046;DHT22;54657;52.022;5.534;2023-04-25T01:44:25;8.70;81.20
65046;DHT22;54657;52.022;5.534;2023-04-25T01:46:51;8.70;81.00
65046;DHT22;54657;52.022;5.534;2023-04-25T01:49:17;8.70;81.10
65046;DHT22;54657;52.022;5.534;2023-04-25T01:51:43;8.70;80.90
65046;DHT22;54657;52.022;5.534;2023-04-25T01:54:10;8.70;80.90
65046;DHT22;54657;52.022;5.534;2023-04-25T01:56:37;8.70;81.10
65046;DHT22;54657;52.022;5.534;2023-04-25T01:59:04;8.60;81.10
65046;DHT22;54657;52.022;5.534;2023-04-25T02:01:30;8.60;81.30
65046;DHT22;54657;52.022;5.534;2023-04-25T02:03:55;8.60;81.30
65046;DHT22;54657;52.022;5.534;2023-04-25T02:06:21;8.50;81.50
65046;DHT22;54657;52.022;5.534;2023-04-25T02:08:46;8.40;81.50
65046;DHT22;54657;52.022;5.534;2023-04-25T02:11:12;8.30;81.90
65046;DHT22;54657;52.022;5.534;2023-04-25T02:13:38;8.30;81.90
65046;DHT22;54657;52.022;5.534;2023-04-25T02:16:04;8.40;81.70
65046;DHT22;54657;52.022;5.534;2023-04-25T02:18:30;8.40;81.50
65046;DHT22;54657;52.022;5.534;2023-04-25T02:20:57;8.40;81.40
65046;DHT22;54657;52.022;5.534;2023-04-25T02:23:23;8.30;81.40
65046;DHT22;54657;52.022;5.534;2023-04-25T02:25:48;8.40;81.40
65046;DHT22;54657;52.022;5.534;2023-04-25T02:28:14;8.40;81.30
65046;DHT22;54657;52.022;5.534;2023-04-25T02:30:40;8.40;81.20
65046;DHT22;54657;52.022;5.534;2023-04-25T02:33:05;8.40;81.10
65046;DHT22;54657;52.022;5.534;2023-04-25T02:35:31;8.40;81.20
65046;DHT22;54657;52.022;5.534;2023-04-25T02:37:56;8.40;80.90
65046;DHT22;54657;52.022;5.534;2023-04-25T02:40:22;8.40;80.90
65046;DHT22;54657;52.022;5.534;2023-04-25T02:42:47;8.40;80.70
65046;DHT22;54657;52.022;5.534;2023-04-25T02:45:13;8.40;80.50
65046;DHT22;54657;52.022;5.534;2023-04-25T02:47:39;8.40;80.50
65046;DHT22;54657;52.022;5.534;2023-04-25T02:50:05;8.50;80.50
65046;DHT22;54657;52.022;5.534;2023-04-25T02:52:30;8.40;80.30
65046;DHT22;54657;52.022;5.534;2023-04-25T02:54:56;8.40;80.50
65046;DHT22;54657;52.022;5.534;2023-04-25T02:57:22;8.30;80.60
65046;DHT22;54657;52.022;5.534;2023-04-25T02:59:47;8.30;80.70
65046;DHT22;54657;52.022;5.534;2023-04-25T03:02:13;8.30;80.80
65046;DHT22;54657;52.022;5.534;2023-04-25T03:04:39;8.30;80.80
65046;DHT22;54657;52.022;5.534;2023-04-25T03:07:05;8.20;80.90
65046;DHT22;54657;52.022;5.534;2023-04-25T03:09:30;8.30;80.80
65046;DHT22;54657;52.022;5.534;2023-04-25T03:11:56;8.30;80.60
65046;DHT22;54657;52.022;5.534;2023-04-25T03:14:21;8.30;80.50
65046;DHT22;54657;52.022;5.534;2023-04-25T03:16:47;8.40;80.50
65046;DHT22;54657;52.022;5.534;2023-04-25T03:19:13;8.30;80.50
65046;DHT22;54657;52.022;5.534;2023-04-25T03:21:41;8.30;80.50
65046;DHT22;54657;52.022;5.534;2023-04-25T03:24:06;8.30;80.40
65046;DHT22;54657;52.022;5.534;2023-04-25T03:26:32;8.20;80.70
65046;DHT22;54657;52.022;5.534;2023-04-25T03:28:58;8.30;80.80
65046;DHT22;54657;52.022;5.534;2023-04-25T03:31:23;8.30;80.60
65046;DHT22;54657;52.022;5.534;2023-04-25T03:33:49;8.30;80.50
65046;DHT22;54657;52.022;5.534;2023-04-25T03:36:14;8.30;80.30
65046;DHT22;54657;52.022;5.534;2023-04-25T03:38:40;8.30;80.20
65046;DHT22;54657;52.022;5.534;2023-04-25T03:41:07;8.30;80.40
65046;DHT22;54657;52.022;5.534;2023-04-25T03:43:32;8.30;80.40
65046;DHT22;54657;52.022;5.534;2023-04-25T03:45:58;8.10;80.80
65046;DHT22;54657;52.022;5.534;2023-04-25T03:48:24;8.10;81.00
65046;DHT22;54657;52.022;5.534;2023-04-25T03:50:51;8.00;81.10
65046;DHT22;54657;52.022;5.534;2023-04-25T03:53:17;8.00;81.30
65046;DHT22;54657;52.022;5.534;2023-04-25T03:55:42;7.90;81.50
65046;DHT22;54657;52.022;5.534;2023-04-25T03:58:08;7.90;81.60
65046;DHT22;54657;52.022;5.534;2023-04-25T04:00:34;7.90;81.40
65046;DHT22;54657;52.022;5.534;2023-04-25T04:03:00;7.90;81.40
65046;DHT22;54657;52.022;5.534;2023-04-25T04:05:26;7.90;81.50
65046;DHT22;54657;52.022;5.534;2023-04-25T04:07:52;7.90;81.40
65046;DHT22;54657;52.022;5.534;2023-04-25T04:10:18;7.90;81.30
65046;DHT22;54657;52.022;5.534;2023-04-25T04:12:43;7.90;81.30
65046;DHT22;54657;52.022;5.534;2023-04-25T04:15:09;7.90;81.50
65046;DHT22;54657;52.022;5.534;2023-04-25T04:17:35;7.90;81.50
65046;DHT22;54657;52.022;5.534;2023-04-25T04:20:01;7.80;81.50
65046;DHT22;54657;52.022;5.534;2023-04-25T04:22:28;7.80;81.40
65046;DHT22;54657;52.022;5.534;2023-04-25T04:24:54;7.80;81.70
65046;DHT22;54657;52.022;5.534;2023-04-25T04:27:21;7.70;81.60
65046;DHT22;54657;52.022;5.534;2023-04-25T04:29:46;7.70;81.90
65046;DHT22;54657;52.022;5.534;2023-04-25T04:32:13;7.70;81.90
65046;DHT22;54657;52.022;5.534;2023-04-25T04:34:39;7.80;81.70
65046;DHT22;54657;52.022;5.534;2023-04-25T04:37:05;7.80;81.50
65046;DHT22;54657;52.022;5.534;2023-04-25T04:39:35;7.80;81.40
65046;DHT22;54657;52.022;5.534;2023-04-25T04:42:00;7.80;81.60
65046;DHT22;54657;52.022;5.534;2023-04-25T04:44:30;7.80;81.50
65046;DHT22;54657;52.022;5.534;2023-04-25T04:46:58;7.80;81.40
65046;DHT22;54657;52.022;5.534;2023-04-25T04:49:23;7.80;81.60
65046;DHT22;54657;52.022;5.534;2023-04-25T04:51:49;7.80;81.50
65046;DHT22;54657;52.022;5.534;2023-04-25T04:54:15;7.90;81.40
65046;DHT22;54657;52.022;5.534;2023-04-25T04:56:40;7.90;81.00
65046;DHT22;54657;52.022;5.534;2023-04-25T04:59:07;7.90;80.90
65046;DHT22;54657;52.022;5.534;2023-04-25T05:01:32;7.90;81.20
65046;DHT22;54657;52.022;5.534;2023-04-25T05:04:00;7.80;81.30
65046;DHT22;54657;52.022;5.534;2023-04-25T05:06:27;7.80;81.30
65046;DHT22;54657;52.022;5.534;2023-04-25T05:08:55;7.80;81.30
65046;DHT22;54657;52.022;5.534;2023-04-25T05:11:21;7.90;81.30
65046;DHT22;54657;52.022;5.534;2023-04-25T05:13:46;7.90;81.20
65046;DHT22;54657;52.022;5.534;2023-04-25T05:16:12;7.90;81.00
65046;DHT22;54657;52.022;5.534;2023-04-25T05:18:39;8.00;81.10
65046;DHT22;54657;52.022;5.534;2023-04-25T05:21:05;8.00;81.00
65046;DHT22;54657;52.022;5.534;2023-04-25T05:23:32;7.90;81.00
65046;DHT22;54657;52.022;5.534;2023-04-25T05:25:57;7.90;81.30
65046;DHT22;54657;52.022;5.534;2023-04-25T05:28:23;7.90;81.30
65046;DHT22;54657;52.022;5.534;2023-04-25T05:30:49;7.90;81.30
65046;DHT22;54657;52.022;5.534;2023-04-25T05:33:15;7.90;81.30
65046;DHT22;54657;52.022;5.534;2023-04-25T05:35:41;7.90;81.30
65046;DHT22;54657;52.022;5.534;2023-04-25T05:38:06;7.90;81.30
65046;DHT22;54657;52.022;5.534;2023-04-25T05:40:32;7.90;81.30
65046;DHT22;54657;52.022;5.534;2023-04-25T05:42:58;7.90;81.20
65046;DHT22;54657;52.022;5.534;2023-04-25T05:45:23;7.90;81.40
65046;DHT22;54657;52.022;5.534;2023-04-25T05:47:49;8.00;81.20
65046;DHT22;54657;52.022;5.534;2023-04-25T05:50:14;8.00;81.10
65046;DHT22;54657;52.022;5.534;2023-04-25T05:52:40;8.10;81.00
65046;DHT22;54657;52.022;5.534;2023-04-25T05:55:05;8.10;80.90
65046;DHT22;54657;52.022;5.534;2023-04-25T05:57:31;8.10;80.60
65046;DHT22;54657;52.022;5.534;2023-04-25T05:59:57;8.10;80.50
65046;DHT22;54657;52.022;5.534;2023-04-25T06:02:22;8.10;80.70
65046;DHT22;54657;52.022;5.534;2023-04-25T06:04:50;8.00;80.90
65046;DHT22;54657;52.022;5.534;2023-04-25T06:07:16;8.00;81.00
65046;DHT22;54657;52.022;5.534;2023-04-25T06:09:41;8.10;80.80
65046;DHT22;54657;52.022;5.534;2023-04-25T06:12:07;8.10;80.80
65046;DHT22;54657;52.022;5.534;2023-04-25T06:14:35;8.20;80.60
65046;DHT22;54657;52.022;5.534;2023-04-25T06:17:02;8.30;80.30
65046;DHT22;54657;52.022;5.534;2023-04-25T06:19:34;8.30;80.30
65046;DHT22;54657;52.022;5.534;2023-04-25T06:22:00;8.40;80.20
65046;DHT22;54657;52.022;5.534;2023-04-25T06:24:26;8.30;80.10
65046;DHT22;54657;52.022;5.534;2023-04-25T06:26:52;8.40;80.00
65046;DHT22;54657;52.022;5.534;2023-04-25T06:29:18;8.40;80.00
65046;DHT22;54657;52.022;5.534;2023-04-25T06:31:44;8.50;79.80
65046;DHT22;54657;52.022;5.534;2023-04-25T06:34:09;8.60;79.50
65046;DHT22;54657;52.022;5.534;2023-04-25T06:36:35;8.60;79.50
65046;DHT22;54657;52.022;5.534;2023-04-25T06:39:00;8.50;79.70
65046;DHT22;54657;52.022;5.534;2023-04-25T06:41:26;8.50;79.60
65046;DHT22;54657;52.022;5.534;2023-04-25T06:43:51;8.60;79.60
65046;DHT22;54657;52.022;5.534;2023-04-25T06:46:17;8.60;79.50
65046;DHT22;54657;52.022;5.534;2023-04-25T06:48:42;8.60;79.30
65046;DHT22;54657;52.022;5.534;2023-04-25T06:51:08;8.60;79.40
65046;DHT22;54657;52.022;5.534;2023-04-25T06:53:34;8.70;79.40
65046;DHT22;54657;52.022;5.534;2023-04-25T06:55:59;8.70;78.60
65046;DHT22;54657;52.022;5.534;2023-04-25T06:58:25;8.80;78.90
65046;DHT22;54657;52.022;5.534;2023-04-25T07:00:51;8.80;78.60
65046;DHT22;54657;52.022;5.534;2023-04-25T07:03:17;8.80;78.70
65046;DHT22;54657;52.022;5.534;2023-04-25T07:05:42;8.90;78.40
65046;DHT22;54657;52.022;5.534;2023-04-25T07:08:08;9.00;78.20
65046;DHT22;54657;52.022;5.534;2023-04-25T07:10:33;9.10;78.00
65046;DHT22;54657;52.022;5.534;2023-04-25T07:13:00;9.20;78.10
65046;DHT22;54657;52.022;5.534;2023-04-25T07:15:25;9.30;77.80
65046;DHT22;54657;52.022;5.534;2023-04-25T07:17:51;9.30;77.30
65046;DHT22;54657;52.022;5.534;2023-04-25T07:20:17;9.30;77.10
65046;DHT22;54657;52.022;5.534;2023-04-25T07:22:42;9.50;77.10
65046;DHT22;54657;52.022;5.534;2023-04-25T07:25:08;9.50;76.60
65046;DHT22;54657;52.022;5.534;2023-04-25T07:27:34;9.40;76.60
65046;DHT22;54657;52.022;5.534;2023-04-25T07:29:59;9.50;76.90
65046;DHT22;54657;52.022;5.534;2023-04-25T07:32:26;9.40;76.80
65046;DHT22;54657;52.022;5.534;2023-04-25T07:34:52;9.40;76.50
65046;DHT22;54657;52.022;5.534;2023-04-25T07:37:17;9.40;76.40
65046;DHT22;54657;52.022;5.534;2023-04-25T07:39:44;9.30;76.60
65046;DHT22;54657;52.022;5.534;2023-04-25T07:42:11;9.40;76.70
65046;DHT22;54657;52.022;5.534;2023-04-25T07:44:36;9.50;76.50
65046;DHT22;54657;52.022;5.534;2023-04-25T07:47:07;9.50;76.40
65046;DHT22;54657;52.022;5.534;2023-04-25T07:49:37;9.70;75.70
65046;DHT22;54657;52.022;5.534;2023-04-25T07:52:04;9.70;75.90
65046;DHT22;54657;52.022;5.534;2023-04-25T07:54:30;9.90;75.10
65046;DHT22;54657;52.022;5.534;2023-04-25T07:56:56;10.00;74.90
65046;DHT22;54657;52.022;5.534;2023-04-25T07:59:22;10.00;74.20
65046;DHT22;54657;52.022;5.534;2023-04-25T08:01:48;10.00;74.60
65046;DHT22;54657;52.022;5.534;2023-04-25T08:04:13;10.10;74.30
65046;DHT22;54657;52.022;5.534;2023-04-25T08:06:39;10.00;74.10
65046;DHT22;54657;52.022;5.534;2023-04-25T08:09:06;10.10;74.20
65046;DHT22;54657;52.022;5.534;2023-04-25T08:11:31;10.20;74.10
65046;DHT22;54657;52.022;5.534;2023-04-25T08:13:57;10.30;73.70
65046;DHT22;54657;52.022;5.534;2023-04-25T08:16:22;10.30;72.50
65046;DHT22;54657;52.022;5.534;2023-04-25T08:18:49;10.30;72.50
65046;DHT22;54657;52.022;5.534;2023-04-25T08:21:15;10.20;72.00
65046;DHT22;54657;52.022;5.534;2023-04-25T08:23:40;10.20;71.60
65046;DHT22;54657;52.022;5.534;2023-04-25T08:26:06;10.10;71.20
65046;DHT22;54657;52.022;5.534;2023-04-25T08:28:32;10.00;71.00
65046;DHT22;54657;52.022;5.534;2023-04-25T08:30:58;10.00;70.70
65046;DHT22;54657;52.022;5.534;2023-04-25T08:33:23;10.00;69.80
65046;DHT22;54657;52.022;5.534;2023-04-25T08:35:49;9.90;71.30
65046;DHT22;54657;52.022;5.534;2023-04-25T08:38:15;9.90;70.60
65046;DHT22;54657;52.022;5.534;2023-04-25T08:40:41;10.00;71.10
65046;DHT22;54657;52.022;5.534;2023-04-25T08:43:07;10.00;68.60
65046;DHT22;54657;52.022;5.534;2023-04-25T08:45:39;10.00;68.50
65046;DHT22;54657;52.022;5.534;2023-04-25T08:48:09;10.10;69.70
65046;DHT22;54657;52.022;5.534;2023-04-25T08:50:48;10.30;69.90
65046;DHT22;54657;52.022;5.534;2023-04-25T08:53:16;10.10;69.30
65046;DHT22;54657;52.022;5.534;2023-04-25T08:55:45;9.80;69.30
65046;DHT22;54657;52.022;5.534;2023-04-25T08:58:11;9.50;71.30
65046;DHT22;54657;52.022;5.534;2023-04-25T09:00:37;9.30;72.40
65046;DHT22;54657;52.022;5.534;2023-04-25T09:03:03;9.30;72.80
65046;DHT22;54657;52.022;5.534;2023-04-25T09:05:28;9.30;72.60
65046;DHT22;54657;52.022;5.534;2023-04-25T09:07:54;9.30;72.10
65046;DHT22;54657;52.022;5.534;2023-04-25T09:10:22;9.30;71.70
65046;DHT22;54657;52.022;5.534;2023-04-25T09:13:05;9.30;71.60
65046;DHT22;54657;52.022;5.534;2023-04-25T09:15:32;9.50;68.80
65046;DHT22;54657;52.022;5.534;2023-04-25T09:17:59;9.60;70.80
65046;DHT22;54657;52.022;5.534;2023-04-25T09:20:25;9.80;70.70
65046;DHT22;54657;52.022;5.534;2023-04-25T09:23:04;10.00;70.10
65046;DHT22;54657;52.022;5.534;2023-04-25T09:25:37;10.10;66.40
65046;DHT22;54657;52.022;5.534;2023-04-25T09:28:05;10.00;65.00
65046;DHT22;54657;52.022;5.534;2023-04-25T09:30:33;10.00;68.10
65046;DHT22;54657;52.022;5.534;2023-04-25T09:33:05;10.10;68.30
65046;DHT22;54657;52.022;5.534;2023-04-25T09:35:39;10.20;66.90
65046;DHT22;54657;52.022;5.534;2023-04-25T09:38:12;10.40;67.40
65046;DHT22;54657;52.022;5.534;2023-04-25T09:40:46;10.60;66.90
65046;DHT22;54657;52.022;5.534;2023-04-25T09:43:24;10.70;63.30
65046;DHT22;54657;52.022;5.534;2023-04-25T09:45:52;10.80;65.10
65046;DHT22;54657;52.022;5.534;2023-04-25T09:48:19;10.90;66.20
65046;DHT22;54657;52.022;5.534;2023-04-25T09:50:51;10.90;66.70
65046;DHT22;54657;52.022;5.534;2023-04-25T09:53:28;10.90;67.50
65046;DHT22;54657;52.022;5.534;2023-04-25T09:55:55;10.80;66.80
65046;DHT22;54657;52.022;5.534;2023-04-25T09:58:24;10.70;67.10
65046;DHT22;54657;52.022;5.534;2023-04-25T10:00:50;10.70;66.50
65046;DHT22;54657;52.022;5.534;2023-04-25T10:03:17;10.60;67.50
65046;DHT22;54657;52.022;5.534;2023-04-25T10:05:44;10.60;67.00
65046;DHT22;54657;52.022;5.534;2023-04-25T10:08:12;10.60;67.80
65046;DHT22;54657;52.022;5.534;2023-04-25T10:10:40;10.60;67.20
65046;DHT22;54657;52.022;5.534;2023-04-25T10:13:05;10.60;67.30
65046;DHT22;54657;52.022;5.534;2023-04-25T10:15:34;10.60;67.30
65046;DHT22;54657;52.022;5.534;2023-04-25T10:18:01;10.40;67.00
65046;DHT22;54657;52.022;5.534;2023-04-25T10:20:28;10.30;68.50
65046;DHT22;54657;52.022;5.534;2023-04-25T10:22:57;10.30;68.40
65046;DHT22;54657;52.022;5.534;2023-04-25T10:25:23;10.20;68.00
65046;DHT22;54657;52.022;5.534;2023-04-25T10:27:53;10.20;68.00
65046;DHT22;54657;52.022;5.534;2023-04-25T10:30:19;10.00;67.00
65046;DHT22;54657;52.022;5.534;2023-04-25T10:32:45;10.00;67.60
65046;DHT22;54657;52.022;5.534;2023-04-25T10:35:29;9.90;67.90
65046;DHT22;54657;52.022;5.534;2023-04-25T10:38:00;10.00;68.20
65046;DHT22;54657;52.022;5.534;2023-04-25T10:40:28;10.10;67.90
65046;DHT22;54657;52.022;5.534;2023-04-25T10:42:54;10.20;67.80
65046;DHT22;54657;52.022;5.534;2023-04-25T10:45:21;10.30;67.20
65046;DHT22;54657;52.022;5.534;2023-04-25T10:47:47;10.40;67.40
65046;DHT22;54657;52.022;5.534;2023-04-25T10:50:14;10.50;66.50
65046;DHT22;54657;52.022;5.534;2023-04-25T10:52:42;10.50;66.40
65046;DHT22;54657;52.022;5.534;2023-04-25T10:55:08;10.50;66.00
65046;DHT22;54657;52.022;5.534;2023-04-25T10:57:43;10.60;66.90
65046;DHT22;54657;52.022;5.534;2023-04-25T11:00:15;10.70;65.80
65046;DHT22;54657;52.022;5.534;2023-04-25T11:02:59;10.70;64.80
65046;DHT22;54657;52.022;5.534;2023-04-25T11:05:36;10.70;62.10
65046;DHT22;54657;52.022;5.534;2023-04-25T11:08:02;10.60;63.10
65046;DHT22;54657;52.022;5.534;2023-04-25T11:10:32;10.60;64.00
65046;DHT22;54657;52.022;5.534;2023-04-25T11:12:58;10.60;64.30
65046;DHT22;54657;52.022;5.534;2023-04-25T11:15:25;10.70;64.60
65046;DHT22;54657;52.022;5.534;2023-04-25T11:17:52;10.80;63.90
65046;DHT22;54657;52.022;5.534;2023-04-25T11:20:18;10.90;63.40
65046;DHT22;54657;52.022;5.534;2023-04-25T11:22:45;11.10;64.50
65046;DHT22;54657;52.022;5.534;2023-04-25T11:25:13;11.20;62.90
65046;DHT22;54657;52.022;5.534;2023-04-25T11:27:56;11.20;63.60
65046;DHT22;54657;52.022;5.534;2023-04-25T11:30:23;11.20;62.50
65046;DHT22;54657;52.022;5.534;2023-04-25T11:32:49;11.40;63.90
65046;DHT22;54657;52.022;5.534;2023-04-25T11:35:16;11.40;63.40
65046;DHT22;54657;52.022;5.534;2023-04-25T11:37:43;11.50;63.70
65046;DHT22;54657;52.022;5.534;2023-04-25T11:40:09;11.40;62.70
65046;DHT22;54657;52.022;5.534;2023-04-25T11:42:37;11.10;63.80
65046;DHT22;54657;52.022;5.534;2023-04-25T11:45:04;10.70;65.50
65046;DHT22;54657;52.022;5.534;2023-04-25T11:47:31;10.50;66.90
65046;DHT22;54657;52.022;5.534;2023-04-25T11:50:01;10.40;67.70
65046;DHT22;54657;52.022;5.534;2023-04-25T11:52:44;10.50;68.00
65046;DHT22;54657;52.022;5.534;2023-04-25T11:55:17;10.50;66.50
65046;DHT22;54657;52.022;5.534;2023-04-25T11:57:44;10.40;67.40
65046;DHT22;54657;52.022;5.534;2023-04-25T12:02:37;10.70;68.10
65046;DHT22;54657;52.022;5.534;2023-04-25T12:05:06;10.60;66.40
65046;DHT22;54657;52.022;5.534;2023-04-25T12:07:34;10.50;66.20
65046;DHT22;54657;52.022;5.534;2023-04-25T12:10:03;10.40;65.50
65046;DHT22;54657;52.022;5.534;2023-04-25T12:12:32;10.30;65.80
65046;DHT22;54657;52.022;5.534;2023-04-25T12:17:40;10.30;63.20
65046;DHT22;54657;52.022;5.534;2023-04-25T12:20:11;10.40;65.50
65046;DHT22;54657;52.022;5.534;2023-04-25T12:22:37;10.40;65.50
65046;DHT22;54657;52.022;5.534;2023-04-25T12:25:06;10.40;64.70
65046;DHT22;54657;52.022;5.534;2023-04-25T12:27:32;10.40;64.80
65046;DHT22;54657;52.022;5.534;2023-04-25T12:29:59;10.50;65.50
65046;DHT22;54657;52.022;5.534;2023-04-25T12:32:25;10.70;63.80
65046;DHT22;54657;52.022;5.534;2023-04-25T12:34:51;10.90;64.50
65046;DHT22;54657;52.022;5.534;2023-04-25T12:37:17;11.10;64.40
65046;DHT22;54657;52.022;5.534;2023-04-25T12:39:43;11.30;63.90
65046;DHT22;54657;52.022;5.534;2023-04-25T12:42:08;11.20;63.00
65046;DHT22;54657;52.022;5.534;2023-04-25T12:44:37;11.00;64.40
65046;DHT22;54657;52.022;5.534;2023-04-25T12:47:03;10.90;64.30
65046;DHT22;54657;52.022;5.534;2023-04-25T12:49:29;10.70;63.60
65046;DHT22;54657;52.022;5.534;2023-04-25T12:51:54;10.70;63.90
65046;DHT22;54657;52.022;5.534;2023-04-25T12:54:20;10.70;64.30
65046;DHT22;54657;52.022;5.534;2023-04-25T12:56:45;10.70;63.40
65046;DHT22;54657;52.022;5.534;2023-04-25T12:59:11;10.80;63.20
65046;DHT22;54657;52.022;5.534;2023-04-25T13:01:37;10.80;63.30
65046;DHT22;54657;52.022;5.534;2023-04-25T13:04:02;10.90;63.70
65046;DHT22;54657;52.022;5.534;2023-04-25T13:06:28;11.00;63.10
65046;DHT22;54657;52.022;5.534;2023-04-25T13:08:55;11.20;60.20
65046;DHT22;54657;52.022;5.534;2023-04-25T13:11:21;11.20;61.80
65046;DHT22;54657;52.022;5.534;2023-04-25T13:13:46;11.20;60.20
65046;DHT22;54657;52.022;5.534;2023-04-25T13:16:12;11.30;62.30
65046;DHT22;54657;52.022;5.534;2023-04-25T13:18:41;11.40;61.70
65046;DHT22;54657;52.022;5.534;2023-04-25T13:21:06;11.40;61.90
65046;DHT22;54657;52.022;5.534;2023-04-25T13:23:32;11.40;61.90
65046;DHT22;54657;52.022;5.534;2023-04-25T13:25:57;11.40;61.80
65046;DHT22;54657;52.022;5.534;2023-04-25T13:28:26;11.30;61.80
65046;DHT22;54657;52.022;5.534;2023-04-25T13:30:52;11.40;61.90
65046;DHT22;54657;52.022;5.534;2023-04-25T13:33:18;11.60;61.50
65046;DHT22;54657;52.022;5.534;2023-04-25T13:35:46;11.60;61.60
65046;DHT22;54657;52.022;5.534;2023-04-25T13:38:19;11.70;62.20
65046;DHT22;54657;52.022;5.534;2023-04-25T13:40:45;11.90;62.10
65046;DHT22;54657;52.022;5.534;2023-04-25T13:43:10;12.00;61.70
65046;DHT22;54657;52.022;5.534;2023-04-25T13:45:36;11.90;60.80
65046;DHT22;54657;52.022;5.534;2023-04-25T13:48:01;11.80;60.40
65046;DHT22;54657;52.022;5.534;2023-04-25T13:50:27;11.50;60.40
65046;DHT22;54657;52.022;5.534;2023-04-25T13:52:53;11.30;61.20
65046;DHT22;54657;52.022;5.534;2023-04-25T13:55:19;11.20;61.60
65046;DHT22;54657;52.022;5.534;2023-04-25T13:57:44;11.20;62.20
65046;DHT22;54657;52.022;5.534;2023-04-25T14:00:11;11.20;61.70
65046;DHT22;54657;52.022;5.534;2023-04-25T14:02:37;11.20;61.80
65046;DHT22;54657;52.022;5.534;2023-04-25T14:05:06;11.30;62.40
65046;DHT22;54657;52.022;5.534;2023-04-25T14:07:34;11.40;61.00
65046;DHT22;54657;52.022;5.534;2023-04-25T14:10:00;11.60;61.60
65046;DHT22;54657;52.022;5.534;2023-04-25T14:12:26;11.60;61.40
65046;DHT22;54657;52.022;5.534;2023-04-25T14:14:52;11.50;61.30
65046;DHT22;54657;52.022;5.534;2023-04-25T14:17:20;11.40;61.40
65046;DHT22;54657;52.022;5.534;2023-04-25T14:19:46;11.40;62.10
65046;DHT22;54657;52.022;5.534;2023-04-25T14:22:14;11.30;61.20
65046;DHT22;54657;52.022;5.534;2023-04-25T14:24:40;11.20;61.30
65046;DHT22;54657;52.022;5.534;2023-04-25T14:27:06;11.20;60.70
65046;DHT22;54657;52.022;5.534;2023-04-25T14:29:31;11.10;60.70
65046;DHT22;54657;52.022;5.534;2023-04-25T14:31:57;11.10;61.50
65046;DHT22;54657;52.022;5.534;2023-04-25T14:34:24;11.10;61.10
65046;DHT22;54657;52.022;5.534;2023-04-25T14:36:51;11.20;61.50
65046;DHT22;54657;52.022;5.534;2023-04-25T14:39:16;11.20;61.50
65046;DHT22;54657;52.022;5.534;2023-04-25T14:41:42;11.00;60.60
65046;DHT22;54657;52.022;5.534;2023-04-25T14:44:08;10.90;61.40
65046;DHT22;54657;52.022;5.534;2023-04-25T14:46:33;10.90;61.70
65046;DHT22;54657;52.022;5.534;2023-04-25T14:48:59;10.80;61.80
65046;DHT22;54657;52.022;5.534;2023-04-25T14:51:25;10.80;61.50
65046;DHT22;54657;52.022;5.534;2023-04-25T14:53:51;10.80;62.10
65046;DHT22;54657;52.022;5.534;2023-04-25T14:56:17;10.70;60.80
65046;DHT22;54657;52.022;5.534;2023-04-25T14:58:44;10.70;60.50
65046;DHT22;54657;52.022;5.534;2023-04-25T15:01:13;10.60;60.70
65046;DHT22;54657;52.022;5.534;2023-04-25T15:03:42;10.70;60.90
65046;DHT22;54657;52.022;5.534;2023-04-25T15:06:07;10.70;60.90
65046;DHT22;54657;52.022;5.534;2023-04-25T15:08:33;10.80;61.00
65046;DHT22;54657;52.022;5.534;2023-04-25T15:10:59;11.00;60.30
65046;DHT22;54657;52.022;5.534;2023-04-25T15:13:25;11.10;60.80
65046;DHT22;54657;52.022;5.534;2023-04-25T15:16:05;11.10;60.30
65046;DHT22;54657;52.022;5.534;2023-04-25T15:18:46;11.10;59.10
65046;DHT22;54657;52.022;5.534;2023-04-25T15:21:20;11.00;58.60
65046;DHT22;54657;52.022;5.534;2023-04-25T15:24:05;10.90;59.50
65046;DHT22;54657;52.022;5.534;2023-04-25T15:26:42;10.80;59.60
65046;DHT22;54657;52.022;5.534;2023-04-25T15:29:07;10.80;60.10
65046;DHT22;54657;52.022;5.534;2023-04-25T15:31:33;10.80;60.40
65046;DHT22;54657;52.022;5.534;2023-04-25T15:33:58;10.70;60.50
65046;DHT22;54657;52.022;5.534;2023-04-25T15:36:24;10.70;60.40
65046;DHT22;54657;52.022;5.534;2023-04-25T15:38:50;10.70;60.60
65046;DHT22;54657;52.022;5.534;2023-04-25T15:41:17;10.60;60.40
65046;DHT22;54657;52.022;5.534;2023-04-25T15:43:42;10.50;60.40